Flight Track Log - Related Links

Times and Time Zones

All times are in EDT time to prevent confusion due to time zone crossing. See the N173DS flight status page for this flight to view local times or setup timezone preferences in your user account.

Time Position Orientation Groundspeed Altitude Reporting Facility
EDT Latitude Longitude Course Direction KTS MPH feet Rate Location/Type
Sun 11:18:51 AM 27.9667 -82.5333 180° South 183 211 700  Level Tampa TRACON
Sun 11:19:15 AM 27.9333 -82.5333 180° South 198 228 1,800 3,286 Climbing Tampa TRACON
Sun 11:20:15 AM 27.8833 -82.5167 164° South 230 265 5,300 3,600 Climbing Tampa TRACON
Sun 11:21:15 AM 27.8833 -82.4500 90° East 250 288 9,000 3,000 Climbing Tampa TRACON
Sun 11:22:09 AM 27.9000 -82.3667 77° East 299 344 11,000 1,053 Climbing Tampa TRACON
Sun 11:23:09 AM 27.9167 -82.2667 79° East 327 376 11,000  Level Tampa TRACON
Sun 11:24:09 AM 27.9500 -82.1667 69° East 331 381 11,000  Level Tampa TRACON
Sun 11:26:00 AM 28.0000 -81.9833 73° East 334 384 11,000  Level Orlando TRACON
Sun 11:26:30 AM 28.0142 -81.9542 61° Northeast 332 382 11,000 -130 Level Miami Center
Sun 11:27:32 AM 28.0708 -81.8444 60° Northeast 333 383 10,800 -581 Descending Miami Center
Sun 11:28:34 AM 28.1506 -81.8061 23° Northeast 313 360 9,800 -1,056 Descending Miami Center
Sun 11:29:37 AM 28.2194 -81.7619 29° Northeast 288 331 8,600 -1,440 Descending Miami Center
Sun 11:30:39 AM 28.2764 -81.6919 47° Northeast 298 343 6,800 -1,742 Descending Miami Center
Sun 11:31:41 AM 28.3336 -81.6283 44° Northeast 291 335 5,000 -1,839 Descending Miami Center
Sun 11:32:43 AM 28.3958 -81.5594 44° Northeast 274 315 3,000 -1,440 Descending Miami Center
Sun 11:33:46 AM 28.4458 -81.5031 45° Northeast 259 298 2,000 -528 Descending Miami Center
Sun 11:34:48 AM 28.4917 -81.4536 43° Northeast 235 270 1,900 -290 Descending Miami Center
Sun 11:35:50 AM 28.5169 -81.4125 55° Northeast 177 204 1,400 -484 Descending Miami Center
Sun 11:36:52 AM 28.5308 -81.3697 70° East 151 174 900 -484 Descending Miami Center
Sun 11:39:00 AM 28.5455 -81.3329 44° Northeast  Level Estimated
Sun 11:46:00 AM 28.5455 -81.3329 North  Level Estimated

Login

Don't have an account? Register now (free) for customized features, flight alerts, and more!